createdAt,value
2022-10-04T00:02:21.660Z,95145.31
2022-10-04T00:05:09.389Z,95149.31
2022-10-04T00:07:56.066Z,95133.94
2022-10-04T00:10:39.115Z,95155.50
2022-10-04T00:13:27.046Z,95158.09
2022-10-04T00:16:22.531Z,95161.38
2022-10-04T00:19:25.882Z,95155.00
2022-10-04T00:22:21.566Z,95155.44
2022-10-04T00:25:22.860Z,95147.25
2022-10-04T00:28:42.730Z,95141.16
2022-10-04T00:31:27.276Z,95147.16
2022-10-04T00:34:46.314Z,95141.53
2022-10-04T00:37:57.203Z,95137.78
2022-10-04T00:40:47.454Z,95128.00
2022-10-04T00:43:34.194Z,95130.25
2022-10-04T00:46:22.572Z,95128.00
2022-10-04T00:49:09.759Z,95123.81
2022-10-04T00:51:57.328Z,95120.38
2022-10-04T00:54:45.589Z,95112.06
2022-10-04T00:57:32.793Z,95107.91
2022-10-04T01:00:18.073Z,95114.09
2022-10-04T01:03:04.960Z,95116.34
2022-10-04T01:05:51.991Z,95117.28
2022-10-04T01:08:40.176Z,95116.94
2022-10-04T01:11:28.915Z,95121.47
2022-10-04T01:14:20.481Z,95114.09
2022-10-04T01:17:04.651Z,95114.50
2022-10-04T01:19:53.602Z,95109.91
2022-10-04T01:22:45.330Z,95122.81
2022-10-04T01:25:52.102Z,95111.25
2022-10-04T01:28:36.337Z,95113.50
2022-10-04T01:31:19.616Z,95116.53
2022-10-04T01:34:03.407Z,95109.75
2022-10-04T01:36:48.686Z,95112.94
2022-10-04T01:39:33.070Z,95111.34
2022-10-04T01:42:21.682Z,95115.38
2022-10-04T01:45:11.962Z,95109.56
2022-10-04T01:47:58.184Z,95101.25
2022-10-04T01:50:45.275Z,95110.63
2022-10-04T01:53:31.371Z,95104.66
2022-10-04T01:56:20.110Z,95110.63
2022-10-04T01:59:07.174Z,95110.63
2022-10-04T02:01:56.446Z,95114.66
2022-10-04T02:04:41.729Z,95121.44
2022-10-04T02:07:29.975Z,95117.03
2022-10-04T02:10:19.059Z,95122.22
2022-10-04T02:13:06.542Z,95123.25
2022-10-04T02:15:50.982Z,95125.81
2022-10-04T02:18:35.093Z,95130.44
2022-10-04T02:21:20.195Z,95141.34
2022-10-04T02:24:03.423Z,95131.81
2022-10-04T02:26:51.210Z,95130.22
2022-10-04T02:29:36.238Z,95134.06
2022-10-04T02:32:36.587Z,95137.84
2022-10-04T02:35:21.309Z,95131.66
2022-10-04T02:38:12.285Z,95138.22
2022-10-04T02:40:59.323Z,95146.81
2022-10-04T02:43:49.207Z,95155.38
2022-10-04T02:46:37.639Z,95160.16
2022-10-04T02:49:27.791Z,95159.16
2022-10-04T02:52:16.376Z,95156.34
2022-10-04T02:55:05.464Z,95168.09
2022-10-04T02:57:49.976Z,95162.06
2022-10-04T03:00:34.260Z,95171.13
2022-10-04T03:03:24.262Z,95163.09
2022-10-04T03:06:10.108Z,95163.63
2022-10-04T03:08:58.169Z,95161.53
2022-10-04T03:11:43.198Z,95170.50
2022-10-04T03:14:29.113Z,95171.59
2022-10-04T03:17:12.949Z,95175.03
2022-10-04T03:19:58.359Z,95175.63
2022-10-04T03:22:46.668Z,95180.44
2022-10-04T03:25:36.862Z,95187.22
2022-10-04T03:28:20.453Z,95182.88
2022-10-04T03:31:03.776Z,95184.63
2022-10-04T03:33:48.249Z,95182.81
2022-10-04T03:36:32.813Z,95182.22
2022-10-04T03:39:25.957Z,95184.81
2022-10-04T03:42:14.691Z,95194.16
2022-10-04T03:45:02.154Z,95197.16
2022-10-04T03:47:48.596Z,95192.09
2022-10-04T03:50:35.414Z,95193.03
2022-10-04T03:53:29.309Z,95190.75
2022-10-04T03:56:14.900Z,95193.59
2022-10-04T03:58:58.786Z,95197.72
2022-10-04T04:01:46.784Z,95196.34
2022-10-04T04:04:41.305Z,95198.75
2022-10-04T04:07:30.391Z,95196.66
2022-10-04T04:10:24.575Z,95194.47
2022-10-04T04:13:25.373Z,95200.69
2022-10-04T04:16:10.807Z,95206.09
2022-10-04T04:18:56.424Z,95204.94
2022-10-04T04:21:40.075Z,95201.16
2022-10-04T04:24:26.923Z,95202.53
2022-10-04T04:27:14.520Z,95219.50
2022-10-04T04:30:01.347Z,95214.31
2022-10-04T04:32:49.345Z,95231.03
2022-10-04T04:35:36.280Z,95228.44
2022-10-04T04:38:24.471Z,95234.03
2022-10-04T04:41:12.322Z,95232.25
2022-10-04T04:43:56.975Z,95229.00
2022-10-04T04:46:40.294Z,95223.38
2022-10-04T04:49:24.201Z,95227.69
2022-10-04T04:52:09.161Z,95238.81
2022-10-04T04:54:53.165Z,95223.25
2022-10-04T04:57:36.555Z,95238.94
2022-10-04T05:00:26.373Z,95241.09
2022-10-04T05:03:20.006Z,95238.34
2022-10-04T05:06:04.951Z,95239.53
2022-10-04T05:08:51.475Z,95238.31
2022-10-04T05:11:37.789Z,95229.47
2022-10-04T05:14:21.209Z,95242.81
2022-10-04T05:17:06.885Z,95238.53
2022-10-04T05:19:51.733Z,95238.41
2022-10-04T05:22:36.221Z,95237.78
2022-10-04T05:25:28.022Z,95241.28
2022-10-04T05:28:12.191Z,95245.50
2022-10-04T05:31:10.550Z,95240.66
2022-10-04T05:33:58.346Z,95252.59
2022-10-04T05:36:49.293Z,95253.09
2022-10-04T05:39:42.281Z,95257.28
2022-10-04T05:42:31.359Z,95261.84
2022-10-04T05:45:19.149Z,95263.59
2022-10-04T05:48:07.845Z,95266.31
2022-10-04T05:50:52.260Z,95267.56
2022-10-04T05:53:36.361Z,95265.59
2022-10-04T05:56:40.609Z,95268.56
2022-10-04T05:59:38.797Z,95267.84
2022-10-04T06:02:37.085Z,95275.50
2022-10-04T06:05:29.175Z,95279.56
2022-10-04T06:08:25.833Z,95283.22
2022-10-04T06:11:24.530Z,95289.94
2022-10-04T06:14:39.665Z,95298.22
2022-10-04T06:17:34.589Z,95299.31
2022-10-04T06:20:51.147Z,95297.84
2022-10-04T06:23:43.064Z,95307.25
2022-10-04T06:26:31.221Z,95297.69
2022-10-04T06:29:20.653Z,95300.56
2022-10-04T06:32:35.963Z,95304.06
2022-10-04T06:35:39.944Z,95313.75
2022-10-04T06:38:49.831Z,95314.38
2022-10-04T06:41:48.515Z,95317.94
2022-10-04T06:44:52.808Z,95317.25
2022-10-04T06:47:54.583Z,95311.84
2022-10-04T06:50:47.460Z,95318.94
2022-10-04T06:53:43.309Z,95318.81
2022-10-04T06:56:46.033Z,95313.94
2022-10-04T06:59:59.070Z,95313.44
2022-10-04T07:02:47.962Z,95318.06
2022-10-04T07:05:35.118Z,95321.03
2022-10-04T07:08:31.624Z,95323.66
2022-10-04T07:11:19.353Z,95326.63
2022-10-04T07:14:11.271Z,95342.53
2022-10-04T07:16:59.433Z,95329.47
2022-10-04T07:19:47.463Z,95331.75
2022-10-04T07:22:35.912Z,95337.34
2022-10-04T07:25:23.912Z,95339.38
2022-10-04T07:28:33.912Z,95351.72
2022-10-04T07:31:26.173Z,95354.94
2022-10-04T07:34:12.688Z,95360.03
2022-10-04T07:36:58.045Z,95351.50
2022-10-04T07:39:47.215Z,95353.56
2022-10-04T07:42:35.193Z,95358.84
2022-10-04T07:45:24.150Z,95349.91
2022-10-04T07:48:23.559Z,95345.97
2022-10-04T07:51:15.326Z,95355.06
2022-10-04T07:54:03.807Z,95364.75
2022-10-04T07:56:55.268Z,95366.38
2022-10-04T07:59:46.499Z,95373.78
2022-10-04T08:02:45.132Z,95380.94
2022-10-04T08:05:37.135Z,95368.84
2022-10-04T08:08:46.491Z,95376.56
2022-10-04T08:11:39.190Z,95368.41
2022-10-04T08:14:35.818Z,95372.59
2022-10-04T08:17:33.677Z,95368.41
2022-10-04T08:20:34.831Z,95367.13
2022-10-04T08:23:40.706Z,95371.47
2022-10-04T08:26:46.993Z,95355.63
2022-10-04T08:30:02.433Z,95350.41
2022-10-04T08:33:08.781Z,95352.16
2022-10-04T08:36:05.634Z,95339.56
2022-10-04T08:38:51.769Z,95360.09
2022-10-04T08:42:15.323Z,95346.28
2022-10-04T08:45:32.482Z,95344.13
2022-10-04T08:48:47.232Z,95334.31
2022-10-04T08:52:13.824Z,95342.59
2022-10-04T08:55:35.183Z,95341.66
2022-10-04T08:58:36.814Z,95343.59
2022-10-04T09:01:40.808Z,95348.75
2022-10-04T09:04:56.665Z,95340.00
2022-10-04T09:08:18.324Z,95338.66
2022-10-04T09:11:26.669Z,95334.78
2022-10-04T09:14:33.345Z,95330.63
2022-10-04T09:17:23.082Z,95339.16
2022-10-04T09:20:39.437Z,95350.53
2022-10-04T09:24:12.377Z,95348.09
2022-10-04T09:27:06.648Z,95345.56
2022-10-04T09:30:16.435Z,95352.63
2022-10-04T09:33:09.606Z,95354.50
2022-10-04T09:36:17.149Z,95364.28
2022-10-04T09:39:30.031Z,95357.63
2022-10-04T09:42:47.482Z,95364.53
2022-10-04T09:45:45.508Z,95356.41
2022-10-04T09:48:37.587Z,95364.38
2022-10-04T09:51:42.005Z,95345.50
2022-10-04T09:54:55.171Z,95349.25
2022-10-04T09:58:10.541Z,95347.72
2022-10-04T10:01:01.114Z,95354.94
2022-10-04T10:04:14.497Z,95359.13
2022-10-04T10:07:37.996Z,95347.69
2022-10-04T10:10:48.569Z,95366.59
2022-10-04T10:13:57.957Z,95356.13
2022-10-04T10:17:01.018Z,95352.78
2022-10-04T10:20:05.689Z,95354.38
2022-10-04T10:23:06.812Z,95364.22
2022-10-04T10:26:13.683Z,95361.03
2022-10-04T10:29:31.065Z,95360.38
2022-10-04T10:33:04.576Z,95360.03
2022-10-04T10:36:21.554Z,95355.78
2022-10-04T10:39:38.041Z,95372.19
2022-10-04T10:43:02.465Z,95357.38
2022-10-04T10:46:04.636Z,95356.34
2022-10-04T10:49:04.736Z,95363.78
2022-10-04T10:52:26.138Z,95369.06
2022-10-04T10:55:41.858Z,95366.03
2022-10-04T10:59:08.393Z,95368.63
2022-10-04T11:02:48.283Z,95360.50
2022-10-04T11:06:01.362Z,95359.59
2022-10-04T11:09:28.863Z,95357.97
2022-10-04T11:12:51.938Z,95369.53
2022-10-04T11:15:44.580Z,95356.72
2022-10-04T11:18:52.042Z,95346.09
2022-10-04T11:22:10.548Z,95349.22
2022-10-04T11:25:39.836Z,95357.44
2022-10-04T11:28:32.752Z,95359.38
2022-10-04T11:31:42.174Z,95358.09
2022-10-04T11:35:04.978Z,95362.50
2022-10-04T11:38:04.178Z,95370.31
2022-10-04T11:41:07.306Z,95358.91
2022-10-04T11:44:31.615Z,95362.41
2022-10-04T11:47:34.557Z,95370.91
2022-10-04T11:50:40.070Z,95361.69
2022-10-04T11:54:03.643Z,95362.66
2022-10-04T11:57:10.706Z,95363.06
2022-10-04T12:00:02.461Z,95362.88
2022-10-04T12:03:22.064Z,95358.84
2022-10-04T12:06:22.740Z,95368.16
2022-10-04T12:09:15.028Z,95361.94
2022-10-04T12:12:37.971Z,95361.34
2022-10-04T12:15:39.564Z,95357.03
2022-10-04T12:18:41.374Z,95358.03
2022-10-04T12:21:59.250Z,95350.69
2022-10-04T12:25:17.756Z,95361.75
2022-10-04T12:28:18.401Z,95362.00
2022-10-04T12:31:24.451Z,95353.06
2022-10-04T12:34:19.523Z,95358.06
2022-10-04T12:37:18.832Z,95359.31
2022-10-04T12:40:20.661Z,95363.47
2022-10-04T12:43:40.749Z,95363.19
2022-10-04T12:46:34.657Z,95360.97
2022-10-04T12:49:28.467Z,95370.47
2022-10-04T12:52:19.753Z,95365.72
2022-10-04T12:55:20.417Z,95365.00
2022-10-04T12:58:09.042Z,95361.78
2022-10-04T13:00:57.780Z,95360.56
2022-10-04T13:04:07.217Z,95371.84
2022-10-04T13:07:01.992Z,95373.22
2022-10-04T13:10:22.535Z,95363.72
2022-10-04T13:13:20.374Z,95367.47
2022-10-04T13:19:24.015Z,95360.97
2022-10-04T13:22:55.417Z,95359.94
2022-10-04T13:26:03.525Z,95356.25
2022-10-04T13:28:54.181Z,95354.59
2022-10-04T13:31:43.051Z,95360.66
2022-10-04T13:34:38.080Z,95364.41
2022-10-04T13:37:33.670Z,95357.88
2022-10-04T13:40:35.127Z,95369.44
2022-10-04T13:43:35.844Z,95369.94
2022-10-04T13:46:27.963Z,95368.41
2022-10-04T13:49:35.602Z,95372.84
2022-10-04T13:52:49.115Z,95377.47
2022-10-04T13:55:56.124Z,95372.69
2022-10-04T13:58:48.353Z,95375.00
2022-10-04T14:01:57.604Z,95370.59
2022-10-04T14:05:33.112Z,95389.78
2022-10-04T14:08:54.822Z,95391.63
2022-10-04T14:12:32.380Z,95388.44
2022-10-04T14:15:38.903Z,95386.22
2022-10-04T14:19:20.846Z,95398.81
2022-10-04T14:22:36.354Z,95405.22
2022-10-04T14:25:55.086Z,95390.31
2022-10-04T14:29:08.534Z,95408.97
2022-10-04T14:32:23.223Z,95416.50
2022-10-04T14:35:14.147Z,95413.25
2022-10-04T14:38:29.552Z,95415.28
2022-10-04T14:41:48.127Z,95424.16
2022-10-04T14:45:04.873Z,95420.97
2022-10-04T14:48:38.525Z,95428.38
2022-10-04T14:51:45.974Z,95431.78
2022-10-04T14:54:42.190Z,95429.59
2022-10-04T14:57:43.600Z,95432.44
2022-10-04T15:00:36.116Z,95436.88
2022-10-04T15:03:32.106Z,95449.47
2022-10-04T15:06:37.119Z,95446.97
2022-10-04T15:09:41.817Z,95456.97
2022-10-04T15:16:14.546Z,95475.06
2022-10-04T15:19:05.279Z,95476.22
2022-10-04T15:21:54.465Z,95479.16
2022-10-04T15:24:50.707Z,95488.88
2022-10-04T15:27:50.809Z,95480.91
2022-10-04T15:30:47.211Z,95483.22
2022-10-04T15:33:37.385Z,95483.41
2022-10-04T15:37:04.438Z,95488.94
2022-10-04T15:40:11.363Z,95487.34
2022-10-04T15:43:13.363Z,95491.53
2022-10-04T15:46:36.012Z,95497.44
2022-10-04T15:49:37.244Z,95493.69
2022-10-04T15:52:54.251Z,95498.09
2022-10-04T15:56:02.822Z,95507.44
2022-10-04T15:58:56.493Z,95517.28
2022-10-04T16:02:08.307Z,95519.94
2022-10-04T16:05:04.537Z,95527.69
2022-10-04T16:08:06.636Z,95529.78
2022-10-04T16:11:14.890Z,95528.19
2022-10-04T16:14:11.996Z,95533.47
2022-10-04T16:17:25.427Z,95539.88
2022-10-04T16:20:28.853Z,95538.41
2022-10-04T16:23:32.687Z,95549.28
2022-10-04T16:26:51.916Z,95548.09
2022-10-04T16:29:41.337Z,95547.09
2022-10-04T16:32:29.247Z,95561.09
2022-10-04T16:35:25.367Z,95560.13
2022-10-04T16:38:21.682Z,95555.88
2022-10-04T16:41:13.386Z,95566.03
2022-10-04T16:43:59.140Z,95566.88
2022-10-04T16:46:46.604Z,95570.31
2022-10-04T16:49:40.206Z,95572.94
2022-10-04T16:52:49.313Z,95571.13
2022-10-04T16:55:47.695Z,95587.44
2022-10-04T16:58:53.331Z,95581.53
2022-10-04T17:01:54.313Z,95589.75
2022-10-04T17:05:19.416Z,95589.94
2022-10-04T17:08:23.872Z,95602.03
2022-10-04T17:11:35.623Z,95603.84
2022-10-04T17:14:53.242Z,95610.25
2022-10-04T17:17:51.940Z,95603.56
2022-10-04T17:20:51.073Z,95615.13
2022-10-04T17:23:53.459Z,95619.25
2022-10-04T17:27:02.003Z,95617.00
2022-10-04T17:30:03.310Z,95613.59
2022-10-04T17:33:01.286Z,95621.75
2022-10-04T17:36:01.405Z,95633.69
2022-10-04T17:38:52.631Z,95629.22
2022-10-04T17:42:12.218Z,95634.22
2022-10-04T17:45:22.296Z,95626.34
2022-10-04T17:48:29.609Z,95627.88
2022-10-04T17:51:49.918Z,95641.91
2022-10-04T17:55:00.429Z,95641.31
2022-10-04T17:57:50.110Z,95650.94
2022-10-04T18:00:52.696Z,95653.75
2022-10-04T18:03:41.851Z,95656.00
2022-10-04T18:06:34.035Z,95661.50
2022-10-04T18:09:23.868Z,95663.41
2022-10-04T18:12:13.372Z,95659.19
2022-10-04T18:15:06.143Z,95665.94
2022-10-04T18:17:50.979Z,95674.97
2022-10-04T18:20:40.883Z,95667.53
2022-10-04T18:23:28.403Z,95671.44
2022-10-04T18:26:17.693Z,95672.75
2022-10-04T18:29:02.499Z,95679.06
2022-10-04T18:31:45.607Z,95677.41
2022-10-04T18:34:32.203Z,95683.56
2022-10-04T18:37:22.191Z,95678.09
2022-10-04T18:40:17.334Z,95674.78
2022-10-04T18:43:01.892Z,95671.94
2022-10-04T18:46:02.579Z,95679.16
2022-10-04T18:48:53.927Z,95688.19
2022-10-04T18:51:40.307Z,95686.44
2022-10-04T18:54:37.634Z,95687.66
2022-10-04T18:57:32.219Z,95693.66
2022-10-04T19:00:33.107Z,95692.50
2022-10-04T19:03:24.126Z,95695.09
2022-10-04T19:06:18.459Z,95694.31
2022-10-04T19:09:13.859Z,95701.72
2022-10-04T19:12:04.247Z,95700.09
2022-10-04T19:14:55.893Z,95703.31
2022-10-04T19:17:47.067Z,95705.31
2022-10-04T19:20:39.961Z,95704.16
2022-10-04T19:23:33.883Z,95694.53
2022-10-04T19:26:37.595Z,95707.97
2022-10-04T19:29:32.927Z,95710.94
2022-10-04T19:32:29.298Z,95716.56
2022-10-04T19:35:30.330Z,95708.16
2022-10-04T19:38:27.073Z,95719.94
2022-10-04T19:41:21.007Z,95713.19
2022-10-04T19:44:13.646Z,95718.97
2022-10-04T19:47:04.082Z,95719.16
2022-10-04T19:49:57.999Z,95718.59
2022-10-04T19:52:47.268Z,95718.59
2022-10-04T19:55:48.069Z,95720.16
2022-10-04T19:58:44.405Z,95714.97
2022-10-04T20:01:29.770Z,95711.38
2022-10-04T20:04:33.403Z,95721.59
2022-10-04T20:07:25.446Z,95723.75
2022-10-04T20:10:24.147Z,95732.94
2022-10-04T20:13:21.429Z,95724.16
2022-10-04T20:16:04.629Z,95732.94
2022-10-04T20:19:16.291Z,95742.31
2022-10-04T20:22:29.044Z,95750.47
2022-10-04T20:25:12.043Z,95751.25
2022-10-04T20:28:03.836Z,95756.25
2022-10-04T20:30:52.410Z,95757.00
2022-10-04T20:33:49.305Z,95754.56
2022-10-04T20:36:53.025Z,95751.16
2022-10-04T20:40:01.467Z,95758.56
2022-10-04T20:42:44.493Z,95762.34
2022-10-04T20:45:28.334Z,95759.91
2022-10-04T20:48:15.023Z,95763.06
2022-10-04T20:51:00.613Z,95766.25
2022-10-04T20:53:46.756Z,95768.22
2022-10-04T20:56:32.519Z,95767.81
2022-10-04T20:59:17.409Z,95769.28
2022-10-04T21:02:05.889Z,95767.06
2022-10-04T21:04:52.206Z,95769.81
2022-10-04T21:07:35.212Z,95774.81
2022-10-04T21:10:20.533Z,95783.41
2022-10-04T21:13:04.923Z,95786.00
2022-10-04T21:15:56.855Z,95789.56
2022-10-04T21:18:39.930Z,95787.94
2022-10-04T21:21:49.570Z,95783.91
2022-10-04T21:24:36.776Z,95783.47
2022-10-04T21:27:28.573Z,95794.19
2022-10-04T21:30:17.005Z,95793.81
2022-10-04T21:33:00.000Z,95793.81
2022-10-04T21:35:43.099Z,95796.16
2022-10-04T21:38:26.135Z,95787.94
2022-10-04T21:41:09.409Z,95792.88
2022-10-04T21:43:52.451Z,95789.69
2022-10-04T21:46:37.291Z,95795.56
2022-10-04T21:49:20.304Z,95783.31
2022-10-04T21:52:03.489Z,95784.25
2022-10-04T21:54:46.517Z,95785.84
2022-10-04T21:57:33.310Z,95790.97
2022-10-04T22:00:18.729Z,95795.25
2022-10-04T22:03:03.216Z,95795.25
2022-10-04T22:05:46.203Z,95800.53
2022-10-04T22:08:29.197Z,95796.06
2022-10-04T22:11:12.551Z,95795.34
2022-10-04T22:13:55.677Z,95796.06
2022-10-04T22:16:38.880Z,95801.00
2022-10-04T22:19:23.311Z,95809.91
2022-10-04T22:22:06.349Z,95810.72
2022-10-04T22:24:49.311Z,95807.91
2022-10-04T22:27:32.331Z,95811.28
2022-10-04T22:30:22.700Z,95807.91
2022-10-04T22:33:31.748Z,95811.81
2022-10-04T22:36:20.211Z,95812.84
2022-10-04T22:39:11.596Z,95822.28
2022-10-04T22:41:57.195Z,95821.25
2022-10-04T22:44:41.444Z,95822.78
2022-10-04T22:47:25.909Z,95823.59
2022-10-04T22:50:22.643Z,95826.28
2022-10-04T22:53:14.439Z,95830.25
2022-10-04T22:55:58.071Z,95832.06
2022-10-04T22:58:41.462Z,95836.53
2022-10-04T23:01:24.439Z,95846.44
2022-10-04T23:04:14.437Z,95834.66
2022-10-04T23:06:57.405Z,95838.59
2022-10-04T23:09:41.785Z,95833.88
2022-10-04T23:12:24.798Z,95832.38
2022-10-04T23:15:09.076Z,95835.47
2022-10-04T23:17:55.615Z,95828.69
2022-10-04T23:20:38.572Z,95831.03
2022-10-04T23:23:22.260Z,95828.38
2022-10-04T23:26:14.603Z,95832.25
2022-10-04T23:28:57.716Z,95840.56
2022-10-04T23:31:40.979Z,95838.16
2022-10-04T23:34:28.390Z,95843.69
2022-10-04T23:37:17.214Z,95838.53
2022-10-04T23:40:00.397Z,95847.94
2022-10-04T23:42:47.184Z,95848.97
2022-10-04T23:45:30.313Z,95844.84
2022-10-04T23:48:17.698Z,95846.88
2022-10-04T23:51:01.012Z,95846.47
2022-10-04T23:53:45.897Z,95841.38
2022-10-04T23:56:30.598Z,95847.94
2022-10-04T23:59:18.145Z,95847.34
